Terminal Aerodrome Forecast
Issued by NWS

Home | Current Version | Previous Version | Text Only | Print | Product List | Glossary On
Versions: 1 2 3 4 5 6 7 8 9 10 11 12 13 14 15 16
000
FTUS45 KVEF 291700
TAFBIH
TAF
KBIH 291720Z 2918/3018 34006KT P6SM OVC150
     FM292100 16007KT P6SM OVC120
     FM300400 34006KT P6SM OVC100
     FM301500 35011KT P6SM OVC080=

USA.gov is the U.S. government's official web portal to all federal, state and local government web resources and services.